Terminal Aerodrome Forecast
Issued by NWS Charleston, WV

Current Version | Previous Version | Graphics & Text | Print | Product List | Glossary On
Versions: 1 2 3 4 5 6 7 8 9 10 11 12 13 14 15 16 17 18 19 20 21
000
FTUS41 KRLX 222300 RRA
TAFHTS
TAF
KHTS 222344Z 2300/2324 16003KT P6SM SCT140
     FM231100 15003KT P6SM BKN070
     FM231700 14006KT P6SM BKN070
     FM232000 14007KT 6SM -SHRA OVC050
     FM232100 13007KT 4SM -SHRA BR OVC050=

USA.gov is the U.S. government's official web portal to all federal, state and local government web resources and services.